createdAt,value
2019-05-07T00:02:06.038Z,98.80
2019-05-07T00:04:34.831Z,98.90
2019-05-07T00:07:04.032Z,99.50
2019-05-07T00:09:33.071Z,99.50
2019-05-07T00:12:02.756Z,99.30
2019-05-07T00:14:34.640Z,98.80
2019-05-07T00:17:04.588Z,98.50
2019-05-07T00:19:33.814Z,98.90
2019-05-07T00:22:02.862Z,99.90
2019-05-07T00:24:33.113Z,99.90
2019-05-07T00:27:02.911Z,99.80
2019-05-07T00:29:32.326Z,99.70
2019-05-07T00:32:02.997Z,99.90
2019-05-07T00:34:34.007Z,99.40
2019-05-07T00:37:06.920Z,99.40
2019-05-07T00:39:39.856Z,99.10
2019-05-07T00:42:12.587Z,99.50
2019-05-07T00:44:45.636Z,99.70
2019-05-07T00:47:14.109Z,99.70
2019-05-07T00:49:43.172Z,99.60
2019-05-07T00:52:14.090Z,98.80
2019-05-07T00:54:43.072Z,98.40
2019-05-07T00:57:12.541Z,98.20
2019-05-07T00:59:42.952Z,98.20
2019-05-07T01:02:12.811Z,98.10
2019-05-07T01:04:42.334Z,98.10
2019-05-07T01:07:12.240Z,98.50
2019-05-07T01:09:43.045Z,98.30
2019-05-07T01:12:12.587Z,98.10
2019-05-07T01:14:42.048Z,98.00
2019-05-07T01:17:13.020Z,98.10
2019-05-07T01:19:42.387Z,97.90
2019-05-07T01:22:12.589Z,98.00
2019-05-07T01:24:42.965Z,97.90
2019-05-07T01:27:12.889Z,97.50
2019-05-07T01:29:43.097Z,98.10
2019-05-07T01:32:32.998Z,98.20
2019-05-07T01:35:03.898Z,98.60
2019-05-07T01:37:33.030Z,98.60
2019-05-07T01:40:03.116Z,98.60
2019-05-07T01:42:33.157Z,98.50
2019-05-07T01:45:04.902Z,98.30
2019-05-07T01:47:33.937Z,98.30
2019-05-07T01:50:03.582Z,98.50
2019-05-07T01:52:33.231Z,98.20
2019-05-07T01:55:03.272Z,98.10
2019-05-07T01:57:32.820Z,98.00
2019-05-07T02:00:02.726Z,98.00
2019-05-07T02:02:33.579Z,98.00
2019-05-07T02:05:22.818Z,97.90
2019-05-07T02:07:53.396Z,98.10
2019-05-07T02:10:31.948Z,97.70
2019-05-07T02:13:02.323Z,97.90
2019-05-07T02:15:32.229Z,97.90
2019-05-07T02:18:02.073Z,97.80
2019-05-07T02:20:32.150Z,98.10
2019-05-07T02:23:02.848Z,98.00
2019-05-07T02:25:32.743Z,97.90
2019-05-07T02:28:02.341Z,98.20
2019-05-07T02:30:34.534Z,97.80
2019-05-07T02:33:03.741Z,97.60
2019-05-07T02:35:33.540Z,97.80
2019-05-07T02:38:04.646Z,98.30
2019-05-07T02:40:38.276Z,97.60
2019-05-07T02:43:07.096Z,98.20
2019-05-07T02:45:46.749Z,97.70
2019-05-07T02:48:17.494Z,97.90
2019-05-07T02:50:53.901Z,98.00
2019-05-07T02:53:35.824Z,97.90
2019-05-07T02:56:05.817Z,98.10
2019-05-07T02:58:34.933Z,98.20
2019-05-07T03:01:05.061Z,98.30
2019-05-07T03:03:34.400Z,98.30
2019-05-07T03:06:03.519Z,98.30
2019-05-07T03:08:33.335Z,98.00
2019-05-07T03:11:03.544Z,98.30
2019-05-07T03:13:33.650Z,98.10
2019-05-07T03:16:03.789Z,99.70
2019-05-07T03:18:33.728Z,99.90
2019-05-07T03:21:12.799Z,99.90
2019-05-07T03:23:46.927Z,99.90
2019-05-07T03:26:16.332Z,99.90
2019-05-07T03:28:53.526Z,99.90
2019-05-07T03:31:46.874Z,99.90
2019-05-07T03:34:27.133Z,99.90
2019-05-07T03:36:58.276Z,99.90
2019-05-07T03:39:27.654Z,99.90
2019-05-07T03:41:57.193Z,99.90
2019-05-07T03:44:39.856Z,99.90
2019-05-07T03:47:19.370Z,99.90
2019-05-07T03:49:48.841Z,99.90
2019-05-07T03:52:17.968Z,99.90
2019-05-07T03:54:46.998Z,99.90
2019-05-07T03:57:16.216Z,99.90
2019-05-07T03:59:45.382Z,99.90
2019-05-07T04:02:14.513Z,99.90
2019-05-07T04:04:43.620Z,99.90
2019-05-07T04:07:13.792Z,99.90
2019-05-07T04:09:43.912Z,99.90
2019-05-07T04:12:13.473Z,99.90
2019-05-07T04:14:43.400Z,99.90
2019-05-07T04:17:17.553Z,99.90
2019-05-07T04:19:44.072Z,99.90
2019-05-07T04:22:14.043Z,99.90
2019-05-07T04:25:04.356Z,99.90
2019-05-07T04:27:35.398Z,99.90
2019-05-07T04:30:06.859Z,99.90
2019-05-07T04:32:43.187Z,99.90
2019-05-07T04:35:21.029Z,99.90
2019-05-07T04:37:53.122Z,99.90
2019-05-07T04:40:23.741Z,99.90
2019-05-07T04:42:53.903Z,99.90
2019-05-07T04:45:25.315Z,99.90
2019-05-07T04:48:23.742Z,99.90
2019-05-07T04:50:54.597Z,99.90
2019-05-07T04:53:25.681Z,99.90
2019-05-07T04:55:54.708Z,99.90
2019-05-07T04:58:26.355Z,99.90
2019-05-07T05:00:54.577Z,99.90
2019-05-07T05:03:25.455Z,99.90
2019-05-07T05:05:54.506Z,99.90
2019-05-07T05:08:43.660Z,99.90
2019-05-07T05:11:13.056Z,99.90
2019-05-07T05:13:44.532Z,99.90
2019-05-07T05:16:26.765Z,99.90
2019-05-07T05:18:56.724Z,99.90
2019-05-07T05:21:27.397Z,99.90
2019-05-07T05:23:58.073Z,99.90
2019-05-07T05:26:27.109Z,99.90
2019-05-07T05:28:56.141Z,99.50
2019-05-07T05:31:25.250Z,99.40
2019-05-07T05:33:54.339Z,99.00
2019-05-07T05:36:23.397Z,98.60
2019-05-07T05:38:52.992Z,98.30
2019-05-07T05:41:23.087Z,98.00
2019-05-07T05:44:02.625Z,97.40
2019-05-07T05:46:33.244Z,97.10
2019-05-07T05:49:02.688Z,97.50
2019-05-07T05:51:33.548Z,97.60
2019-05-07T05:54:07.029Z,98.10
2019-05-07T05:56:42.473Z,99.00
2019-05-07T05:59:47.469Z,98.50
2019-05-07T06:02:19.845Z,99.10
2019-05-07T06:04:52.655Z,99.70
2019-05-07T06:07:29.056Z,99.90
2019-05-07T06:10:15.951Z,99.20
2019-05-07T06:12:52.638Z,97.60
2019-05-07T06:15:41.923Z,96.70
2019-05-07T06:18:21.040Z,95.80
2019-05-07T06:20:47.185Z,95.30
2019-05-07T06:23:29.841Z,94.70
2019-05-07T06:25:58.984Z,96.20
2019-05-07T06:28:28.093Z,94.20
2019-05-07T06:30:57.122Z,93.80
2019-05-07T06:33:26.171Z,92.80
2019-05-07T06:35:55.261Z,93.30
2019-05-07T06:38:25.956Z,93.20
2019-05-07T06:40:59.312Z,93.70
2019-05-07T06:43:42.029Z,93.00
2019-05-07T06:46:12.429Z,92.30
2019-05-07T06:48:43.651Z,93.60
2019-05-07T06:51:12.576Z,93.30
2019-05-07T06:53:42.225Z,93.40
2019-05-07T06:56:12.248Z,92.80
2019-05-07T06:58:45.906Z,92.40
2019-05-07T07:01:25.049Z,93.40
2019-05-07T07:04:02.573Z,93.20
2019-05-07T07:06:48.850Z,89.50
2019-05-07T07:09:19.539Z,91.80
2019-05-07T07:11:50.293Z,91.40
2019-05-07T07:14:19.621Z,90.50
2019-05-07T07:19:39.576Z,88.40
2019-05-07T07:22:08.621Z,88.60
2019-05-07T07:24:38.017Z,85.60
2019-05-07T07:27:07.173Z,87.60
2019-05-07T07:29:37.879Z,89.10
2019-05-07T07:32:08.624Z,87.70
2019-05-07T07:37:25.654Z,86.20
2019-05-07T07:39:56.060Z,84.90
2019-05-07T07:42:25.412Z,86.40
2019-05-07T07:45:12.532Z,84.30
2019-05-07T07:47:42.227Z,83.70
2019-05-07T07:50:12.935Z,81.60
2019-05-07T07:52:42.161Z,81.00
2019-05-07T07:55:12.764Z,81.40
2019-05-07T07:57:46.361Z,84.30
2019-05-07T08:00:32.896Z,83.70
2019-05-07T08:03:03.764Z,80.50
2019-05-07T08:05:32.857Z,81.90
2019-05-07T08:08:02.348Z,77.90
2019-05-07T08:10:32.591Z,79.20
2019-05-07T08:13:02.077Z,82.30
2019-05-07T08:15:32.999Z,79.90
2019-05-07T08:18:02.925Z,79.10
2019-05-07T08:20:37.478Z,83.60
2019-05-07T08:23:05.172Z,84.60
2019-05-07T08:25:49.284Z,82.00
2019-05-07T08:28:17.847Z,85.00
2019-05-07T08:30:57.340Z,86.40
2019-05-07T08:33:32.239Z,89.70
2019-05-07T08:36:08.465Z,90.70
2019-05-07T08:38:48.141Z,92.60
2019-05-07T08:41:17.652Z,94.60
2019-05-07T08:43:46.764Z,94.40
2019-05-07T08:46:17.454Z,91.70
2019-05-07T08:48:48.212Z,90.20
2019-05-07T08:51:29.801Z,90.40
2019-05-07T08:56:53.881Z,85.90
2019-05-07T08:59:57.622Z,89.50
2019-05-07T09:02:14.984Z,89.10
2019-05-07T09:04:44.045Z,84.60
2019-05-07T09:07:13.255Z,81.90
2019-05-07T09:09:43.951Z,84.50
2019-05-07T09:12:13.073Z,87.30
2019-05-07T09:14:42.684Z,88.40
2019-05-07T09:17:12.775Z,87.80
2019-05-07T09:19:50.670Z,80.90
2019-05-07T09:22:12.957Z,84.20
2019-05-07T09:24:42.599Z,83.20
2019-05-07T09:27:16.485Z,80.60
2019-05-07T09:29:51.866Z,85.00
2019-05-07T09:32:38.420Z,86.60
2019-05-07T09:35:12.559Z,81.10
2019-05-07T09:37:42.060Z,83.20
2019-05-07T09:40:12.587Z,82.30
2019-05-07T09:42:42.297Z,83.50
2019-05-07T09:45:12.152Z,84.00
2019-05-07T09:47:41.865Z,85.40
2019-05-07T09:50:13.328Z,81.10
2019-05-07T09:52:42.791Z,79.50
2019-05-07T09:55:17.073Z,82.20
2019-05-07T09:57:42.848Z,82.30
2019-05-07T10:00:12.551Z,85.70
2019-05-07T10:02:42.554Z,79.80
2019-05-07T10:05:12.169Z,83.20
2019-05-07T10:07:42.363Z,86.10
2019-05-07T10:10:15.964Z,81.30
2019-05-07T10:12:46.221Z,81.60
2019-05-07T10:15:15.515Z,83.20
2019-05-07T10:17:49.941Z,80.00
2019-05-07T10:20:22.349Z,81.90
2019-05-07T10:22:51.865Z,82.70
2019-05-07T10:25:22.587Z,81.60
2019-05-07T10:27:53.180Z,81.70
2019-05-07T10:30:23.193Z,81.80
2019-05-07T10:32:52.817Z,82.70
2019-05-07T10:35:22.908Z,82.50
2019-05-07T10:37:52.838Z,80.20
2019-05-07T10:40:22.434Z,80.00
2019-05-07T10:42:52.062Z,81.90
2019-05-07T10:45:25.887Z,85.70
2019-05-07T10:47:59.614Z,83.40
2019-05-07T10:50:38.369Z,81.90
2019-05-07T10:53:06.834Z,81.70
2019-05-07T10:55:36.052Z,80.00
2019-05-07T10:58:05.658Z,79.50
2019-05-07T11:00:34.978Z,80.00
2019-05-07T11:03:06.742Z,75.90
2019-05-07T11:05:35.878Z,79.80
2019-05-07T11:08:04.994Z,77.90
2019-05-07T11:10:34.016Z,81.70
2019-05-07T11:13:03.330Z,79.50
2019-05-07T11:15:32.900Z,77.80
2019-05-07T11:18:16.421Z,78.00
2019-05-07T11:20:50.320Z,77.80
2019-05-07T11:23:16.260Z,76.60
2019-05-07T11:25:45.355Z,74.50
2019-05-07T11:28:14.417Z,76.50
2019-05-07T11:30:43.893Z,76.30
2019-05-07T11:33:13.094Z,77.60
2019-05-07T11:35:42.433Z,77.30
2019-05-07T11:38:20.634Z,74.10
2019-05-07T11:40:42.995Z,76.20
2019-05-07T11:43:13.694Z,77.80
2019-05-07T11:45:44.364Z,77.70
2019-05-07T11:48:13.471Z,79.30
2019-05-07T11:51:01.405Z,80.80
2019-05-07T11:53:22.588Z,79.60
2019-05-07T11:55:52.353Z,74.80
2019-05-07T11:58:21.955Z,78.00
2019-05-07T12:00:52.862Z,81.70
2019-05-07T12:03:22.209Z,77.80
2019-05-07T12:05:52.695Z,73.20
2019-05-07T12:08:23.741Z,73.90
2019-05-07T12:10:52.746Z,74.50
2019-05-07T12:13:27.718Z,75.90
2019-05-07T12:16:00.039Z,73.00
2019-05-07T12:18:29.087Z,75.10
2019-05-07T12:20:58.120Z,74.00
2019-05-07T12:23:27.233Z,72.80
2019-05-07T12:25:56.265Z,70.00
2019-05-07T12:28:25.483Z,71.10
2019-05-07T12:31:12.400Z,73.10
2019-05-07T12:36:27.045Z,81.90
2019-05-07T12:38:56.069Z,71.00
2019-05-07T12:41:33.714Z,71.50
2019-05-07T12:44:05.324Z,73.10
2019-05-07T12:46:35.985Z,75.90
2019-05-07T12:49:05.361Z,73.50
2019-05-07T12:51:42.710Z,74.70
2019-05-07T12:54:29.219Z,73.60
2019-05-07T12:57:17.666Z,73.10
2019-05-07T12:59:49.546Z,74.10
2019-05-07T13:02:36.359Z,76.70
2019-05-07T13:04:52.012Z,76.70
2019-05-07T13:07:25.234Z,79.40
2019-05-07T13:09:54.447Z,78.50
2019-05-07T13:12:23.559Z,78.60
2019-05-07T13:14:52.606Z,80.10
2019-05-07T13:17:22.392Z,78.80
2019-05-07T13:19:52.447Z,76.50
2019-05-07T13:22:22.034Z,73.70
2019-05-07T13:24:52.944Z,74.30
2019-05-07T13:27:22.184Z,73.10
2019-05-07T13:29:53.094Z,70.90
2019-05-07T13:32:24.046Z,73.00
2019-05-07T13:34:54.950Z,68.40
2019-05-07T13:37:25.616Z,68.40
2019-05-07T13:39:56.480Z,66.60
2019-05-07T13:42:39.109Z,68.20
2019-05-07T13:45:11.831Z,65.50
2019-05-07T13:47:41.158Z,69.40
2019-05-07T13:50:11.922Z,75.10
2019-05-07T13:52:43.133Z,75.00
2019-05-07T13:55:12.876Z,73.00
2019-05-07T13:57:42.321Z,71.60
2019-05-07T14:00:13.924Z,72.40
2019-05-07T14:02:43.230Z,75.90
2019-05-07T14:05:14.330Z,74.60
2019-05-07T14:07:43.902Z,72.10
2019-05-07T14:10:13.155Z,74.20
2019-05-07T14:12:43.049Z,73.50
2019-05-07T14:15:12.962Z,74.90
2019-05-07T14:17:42.080Z,74.90
2019-05-07T14:20:12.913Z,76.00
2019-05-07T14:22:42.563Z,76.80
2019-05-07T14:25:11.839Z,76.80
2019-05-07T14:27:42.702Z,79.60
2019-05-07T14:30:12.977Z,76.40
2019-05-07T14:32:49.810Z,76.30
2019-05-07T14:35:26.558Z,77.80
2019-05-07T14:38:13.948Z,77.90
2019-05-07T14:40:43.244Z,77.20
2019-05-07T14:43:22.488Z,77.70
2019-05-07T14:45:52.242Z,76.30
2019-05-07T14:48:22.563Z,68.90
2019-05-07T14:50:53.060Z,68.40
2019-05-07T14:53:22.467Z,69.40
2019-05-07T14:55:51.585Z,69.50
2019-05-07T14:58:20.621Z,72.40
2019-05-07T15:00:51.692Z,73.20
2019-05-07T15:03:20.417Z,72.40
2019-05-07T15:05:49.521Z,73.50
2019-05-07T15:08:18.638Z,74.40
2019-05-07T15:10:49.131Z,73.20
2019-05-07T15:13:18.159Z,74.60
2019-05-07T15:15:49.159Z,75.40
2019-05-07T15:18:26.291Z,74.50
2019-05-07T15:20:55.513Z,72.80
2019-05-07T15:23:35.221Z,74.20
2019-05-07T15:26:04.929Z,74.30
2019-05-07T15:28:35.520Z,74.20
2019-05-07T15:31:12.205Z,73.40
2019-05-07T15:36:33.403Z,74.20
2019-05-07T15:39:02.943Z,75.70
2019-05-07T15:41:32.230Z,76.80
2019-05-07T15:44:02.688Z,74.80
2019-05-07T15:46:32.296Z,74.20
2019-05-07T15:49:01.896Z,73.70
2019-05-07T15:51:32.792Z,72.80
2019-05-07T15:54:03.555Z,74.00
2019-05-07T15:56:32.693Z,74.00
2019-05-07T15:59:02.241Z,72.50
2019-05-07T16:01:31.425Z,71.10
2019-05-07T16:04:02.616Z,70.20
2019-05-07T16:06:32.319Z,69.90
2019-05-07T16:09:02.466Z,70.60
2019-05-07T16:11:32.636Z,67.00
2019-05-07T16:14:06.092Z,69.20
2019-05-07T16:16:36.614Z,67.80
2019-05-07T16:19:15.979Z,68.50
2019-05-07T16:21:44.997Z,68.20
2019-05-07T16:24:14.061Z,66.40
2019-05-07T16:26:43.091Z,66.10
2019-05-07T16:29:13.338Z,67.10
2019-05-07T16:31:44.267Z,65.60
2019-05-07T16:34:13.567Z,65.20
2019-05-07T16:36:43.862Z,70.50
2019-05-07T16:39:24.190Z,68.50
2019-05-07T16:43:03.576Z,65.00
2019-05-07T16:44:49.027Z,67.40
2019-05-07T16:47:22.931Z,66.90
2019-05-07T16:49:51.849Z,65.80
2019-05-07T16:52:22.477Z,69.30
2019-05-07T16:54:52.186Z,68.30
2019-05-07T16:57:35.135Z,68.30
2019-05-07T17:00:07.264Z,71.60
2019-05-07T17:02:38.009Z,69.00
2019-05-07T17:05:16.320Z,68.50
2019-05-07T17:07:59.253Z,69.20
2019-05-07T17:10:28.296Z,70.00
2019-05-07T17:12:57.332Z,71.40
2019-05-07T17:15:26.449Z,72.40
2019-05-07T17:18:02.777Z,74.70
2019-05-07T17:20:32.807Z,74.20
2019-05-07T17:23:03.041Z,74.90
2019-05-07T17:25:38.295Z,73.20
2019-05-07T17:28:08.460Z,75.10
2019-05-07T17:30:38.706Z,74.80
2019-05-07T17:33:07.759Z,74.20
2019-05-07T17:35:36.789Z,74.90
2019-05-07T17:38:09.409Z,73.70
2019-05-07T17:40:36.568Z,77.50
2019-05-07T17:43:05.617Z,75.90
2019-05-07T17:45:40.441Z,77.60
2019-05-07T17:48:09.512Z,78.00
2019-05-07T17:50:40.187Z,77.30
2019-05-07T17:53:09.321Z,78.20
2019-05-07T17:55:38.355Z,78.70
2019-05-07T17:58:07.392Z,79.70
2019-05-07T18:00:36.486Z,81.00
2019-05-07T18:03:07.303Z,79.30
2019-05-07T18:05:36.332Z,80.70
2019-05-07T18:08:05.688Z,80.10
2019-05-07T18:10:34.765Z,79.10
2019-05-07T18:13:03.923Z,80.00
2019-05-07T18:15:32.951Z,82.00
2019-05-07T18:18:06.307Z,81.30
2019-05-07T18:20:35.328Z,80.90
2019-05-07T18:23:06.888Z,81.50
2019-05-07T18:25:35.187Z,81.80
2019-05-07T18:28:04.236Z,83.30
2019-05-07T18:30:33.286Z,82.30
2019-05-07T18:33:15.821Z,83.00
2019-05-07T18:35:46.664Z,84.50
2019-05-07T18:38:15.701Z,83.50
2019-05-07T18:40:44.718Z,82.70
2019-05-07T18:43:13.767Z,83.70
2019-05-07T18:45:42.807Z,85.10
2019-05-07T18:48:12.040Z,85.10
2019-05-07T18:50:41.942Z,85.70
2019-05-07T18:53:12.208Z,84.70
2019-05-07T18:55:42.379Z,83.70
2019-05-07T18:58:13.325Z,85.20
2019-05-07T19:00:43.952Z,85.10
2019-05-07T19:03:12.993Z,85.60
2019-05-07T19:05:42.492Z,87.40
2019-05-07T19:08:12.595Z,86.60
2019-05-07T19:10:42.862Z,86.90
2019-05-07T19:13:12.179Z,85.20
2019-05-07T19:15:42.041Z,85.80
2019-05-07T19:18:12.099Z,85.50
2019-05-07T19:20:42.157Z,86.50
2019-05-07T19:23:11.432Z,88.00
2019-05-07T19:25:42.100Z,86.80
2019-05-07T19:28:14.745Z,88.00
2019-05-07T19:30:42.161Z,86.90
2019-05-07T19:33:12.305Z,88.00
2019-05-07T19:35:41.942Z,88.00
2019-05-07T19:38:11.112Z,88.60
2019-05-07T19:40:41.936Z,90.20
2019-05-07T19:43:10.904Z,90.10
2019-05-07T19:45:41.817Z,89.90
2019-05-07T19:48:12.414Z,90.10
2019-05-07T19:50:42.040Z,89.60
2019-05-07T19:53:12.469Z,88.90
2019-05-07T19:56:01.968Z,88.50
2019-05-07T19:58:32.733Z,89.50
2019-05-07T20:01:02.515Z,90.00
2019-05-07T20:03:31.544Z,90.30
2019-05-07T20:06:02.423Z,91.20
2019-05-07T20:08:32.295Z,90.40
2019-05-07T20:11:22.443Z,90.50
2019-05-07T20:13:52.358Z,90.70
2019-05-07T20:16:23.211Z,91.30
2019-05-07T20:18:52.768Z,91.00
2019-05-07T20:21:22.834Z,91.20
2019-05-07T20:23:52.774Z,91.10
2019-05-07T20:26:23.212Z,91.50
2019-05-07T20:28:52.765Z,91.10
2019-05-07T20:31:22.584Z,91.00
2019-05-07T20:33:53.175Z,91.50
2019-05-07T20:36:22.487Z,90.60
2019-05-07T20:38:52.134Z,91.80
2019-05-07T20:41:23.259Z,92.90
2019-05-07T20:43:52.450Z,92.60
2019-05-07T20:46:21.587Z,92.20
2019-05-07T20:48:52.494Z,92.70
2019-05-07T20:51:23.116Z,93.50
2019-05-07T20:53:53.773Z,93.00
2019-05-07T20:56:24.450Z,94.30
2019-05-07T20:58:53.495Z,95.00
2019-05-07T21:01:22.507Z,94.80
2019-05-07T21:03:52.734Z,95.20
2019-05-07T21:06:22.536Z,94.90
2019-05-07T21:08:51.773Z,94.70
2019-05-07T21:11:22.700Z,95.20
2019-05-07T21:13:52.367Z,94.10
2019-05-07T21:16:22.221Z,94.50
2019-05-07T21:18:52.848Z,94.70
2019-05-07T21:21:22.116Z,93.80
2019-05-07T21:23:52.734Z,94.00
2019-05-07T21:26:22.622Z,94.30
2019-05-07T21:28:52.778Z,93.90
2019-05-07T21:31:22.786Z,94.60
2019-05-07T21:33:52.518Z,94.40
2019-05-07T21:36:22.788Z,95.10
2019-05-07T21:38:52.161Z,94.70
2019-05-07T21:41:22.582Z,94.60
2019-05-07T21:43:52.791Z,96.20
2019-05-07T21:46:22.393Z,94.70
2019-05-07T21:48:53.596Z,94.80
2019-05-07T21:51:23.002Z,94.50
2019-05-07T21:54:12.246Z,94.70
2019-05-07T21:56:42.972Z,94.90
2019-05-07T21:59:13.667Z,96.00
2019-05-07T22:01:44.345Z,95.20
2019-05-07T22:04:13.469Z,95.70
2019-05-07T22:06:45.418Z,95.70
2019-05-07T22:09:14.286Z,95.60
2019-05-07T22:11:43.403Z,96.20
2019-05-07T22:14:13.000Z,96.40
2019-05-07T22:16:42.524Z,96.00
2019-05-07T22:19:12.261Z,97.10
2019-05-07T22:21:43.276Z,97.50
2019-05-07T22:24:13.049Z,98.20
2019-05-07T22:26:43.078Z,98.20
2019-05-07T22:29:12.704Z,98.50
2019-05-07T22:31:46.329Z,98.40
2019-05-07T22:34:28.363Z,98.40
2019-05-07T22:36:57.387Z,99.20
2019-05-07T22:39:26.828Z,98.90
2019-05-07T22:41:55.853Z,99.50
2019-05-07T22:44:26.362Z,99.20
2019-05-07T22:46:55.721Z,99.30
2019-05-07T22:49:24.780Z,98.90
2019-05-07T22:51:54.884Z,99.60
2019-05-07T22:54:24.217Z,99.90
2019-05-07T22:56:57.874Z,99.90
2019-05-07T22:59:26.620Z,99.90
2019-05-07T23:01:55.723Z,99.90
2019-05-07T23:04:24.823Z,99.90
2019-05-07T23:06:53.863Z,99.90
2019-05-07T23:09:23.227Z,99.90
2019-05-07T23:11:54.812Z,99.90
2019-05-07T23:14:23.055Z,99.90
2019-05-07T23:16:55.200Z,99.90
2019-05-07T23:19:22.843Z,99.90
2019-05-07T23:21:52.319Z,99.90
2019-05-07T23:24:22.552Z,99.90
2019-05-07T23:26:53.598Z,99.90
2019-05-07T23:29:23.020Z,99.90
2019-05-07T23:31:53.005Z,99.90
2019-05-07T23:34:22.888Z,99.90
2019-05-07T23:36:53.403Z,99.90
2019-05-07T23:39:24.374Z,99.90
2019-05-07T23:41:55.061Z,99.90
2019-05-07T23:44:24.160Z,99.90
2019-05-07T23:46:53.195Z,99.90
2019-05-07T23:49:23.241Z,99.90
2019-05-07T23:51:53.209Z,99.90
2019-05-07T23:54:34.311Z,99.90
2019-05-07T23:57:08.874Z,99.90
2019-05-07T23:59:34.109Z,99.90
